sensor_id;sensor_type;location;lat;lon;timestamp;P1;durP1;ratioP1;P2;durP2;ratioP2
76729;SDS011;65653;53.106;18.046;2023-04-08T00:00:03;24.50;;;14.40;;
76729;SDS011;65653;53.106;18.046;2023-04-08T00:02:52;22.50;;;13.30;;
76729;SDS011;65653;53.106;18.046;2023-04-08T00:05:18;28.00;;;16.90;;
76729;SDS011;65653;53.106;18.046;2023-04-08T00:07:44;23.50;;;13.20;;
76729;SDS011;65653;53.106;18.046;2023-04-08T00:10:11;24.60;;;13.40;;
76729;SDS011;65653;53.106;18.046;2023-04-08T00:12:37;25.40;;;13.60;;
76729;SDS011;65653;53.106;18.046;2023-04-08T00:15:04;21.10;;;13.00;;
76729;SDS011;65653;53.106;18.046;2023-04-08T00:17:31;23.90;;;14.20;;
76729;SDS011;65653;53.106;18.046;2023-04-08T00:19:58;25.30;;;15.00;;
76729;SDS011;65653;53.106;18.046;2023-04-08T00:22:25;24.10;;;14.00;;
76729;SDS011;65653;53.106;18.046;2023-04-08T00:24:51;26.70;;;15.10;;
76729;SDS011;65653;53.106;18.046;2023-04-08T00:27:18;25.40;;;13.20;;
76729;SDS011;65653;53.106;18.046;2023-04-08T00:29:44;25.40;;;12.80;;
76729;SDS011;65653;53.106;18.046;2023-04-08T00:32:14;30.50;;;17.40;;
76729;SDS011;65653;53.106;18.046;2023-04-08T00:34:40;31.10;;;18.80;;
76729;SDS011;65653;53.106;18.046;2023-04-08T00:37:07;44.70;;;23.30;;
76729;SDS011;65653;53.106;18.046;2023-04-08T00:39:33;43.90;;;23.90;;
76729;SDS011;65653;53.106;18.046;2023-04-08T00:42:00;44.40;;;23.90;;
76729;SDS011;65653;53.106;18.046;2023-04-08T00:44:27;46.70;;;24.60;;
76729;SDS011;65653;53.106;18.046;2023-04-08T00:46:53;33.50;;;19.10;;
76729;SDS011;65653;53.106;18.046;2023-04-08T00:49:20;40.10;;;19.90;;
76729;SDS011;65653;53.106;18.046;2023-04-08T00:51:46;46.20;;;23.50;;
76729;SDS011;65653;53.106;18.046;2023-04-08T00:54:13;45.80;;;24.00;;
76729;SDS011;65653;53.106;18.046;2023-04-08T00:56:39;55.10;;;27.40;;
76729;SDS011;65653;53.106;18.046;2023-04-08T00:59:05;42.80;;;23.00;;
76729;SDS011;65653;53.106;18.046;2023-04-08T01:09:55;39.10;;;20.70;;
76729;SDS011;65653;53.106;18.046;2023-04-08T01:12:26;39.30;;;21.50;;
76729;SDS011;65653;53.106;18.046;2023-04-08T01:15:00;38.40;;;19.00;;
76729;SDS011;65653;53.106;18.046;2023-04-08T01:17:32;37.30;;;19.40;;
76729;SDS011;65653;53.106;18.046;2023-04-08T01:20:02;29.10;;;16.80;;
76729;SDS011;65653;53.106;18.046;2023-04-08T01:25:07;30.80;;;17.10;;
76729;SDS011;65653;53.106;18.046;2023-04-08T01:27:40;33.00;;;17.50;;
76729;SDS011;65653;53.106;18.046;2023-04-08T01:30:08;32.50;;;17.80;;
76729;SDS011;65653;53.106;18.046;2023-04-08T01:32:36;39.90;;;18.90;;
76729;SDS011;65653;53.106;18.046;2023-04-08T01:40:24;34.70;;;17.80;;
76729;SDS011;65653;53.106;18.046;2023-04-08T01:42:52;37.60;;;19.60;;
76729;SDS011;65653;53.106;18.046;2023-04-08T01:45:21;38.90;;;19.50;;
76729;SDS011;65653;53.106;18.046;2023-04-08T01:47:49;37.90;;;20.20;;
76729;SDS011;65653;53.106;18.046;2023-04-08T01:50:16;37.30;;;20.10;;
76729;SDS011;65653;53.106;18.046;2023-04-08T01:52:45;41.40;;;21.60;;
76729;SDS011;65653;53.106;18.046;2023-04-08T01:55:13;26.00;;;14.00;;
76729;SDS011;65653;53.106;18.046;2023-04-08T01:57:40;32.80;;;16.40;;
76729;SDS011;65653;53.106;18.046;2023-04-08T02:00:13;32.70;;;16.80;;
76729;SDS011;65653;53.106;18.046;2023-04-08T02:02:43;31.50;;;16.80;;
76729;SDS011;65653;53.106;18.046;2023-04-08T02:05:12;34.00;;;17.20;;
76729;SDS011;65653;53.106;18.046;2023-04-08T02:07:39;29.90;;;16.90;;
76729;SDS011;65653;53.106;18.046;2023-04-08T02:10:06;32.90;;;16.20;;
76729;SDS011;65653;53.106;18.046;2023-04-08T02:12:33;33.40;;;17.00;;
76729;SDS011;65653;53.106;18.046;2023-04-08T02:15:00;30.50;;;16.90;;
76729;SDS011;65653;53.106;18.046;2023-04-08T02:17:29;33.20;;;18.20;;
76729;SDS011;65653;53.106;18.046;2023-04-08T02:20:14;31.30;;;17.20;;
76729;SDS011;65653;53.106;18.046;2023-04-08T02:25:25;35.00;;;17.30;;
76729;SDS011;65653;53.106;18.046;2023-04-08T02:27:54;26.60;;;13.30;;
76729;SDS011;65653;53.106;18.046;2023-04-08T02:30:21;38.50;;;18.80;;
76729;SDS011;65653;53.106;18.046;2023-04-08T02:32:53;32.60;;;17.40;;
76729;SDS011;65653;53.106;18.046;2023-04-08T02:35:22;33.40;;;16.20;;
76729;SDS011;65653;53.106;18.046;2023-04-08T02:37:48;32.40;;;15.90;;
76729;SDS011;65653;53.106;18.046;2023-04-08T02:42:55;34.50;;;18.50;;
76729;SDS011;65653;53.106;18.046;2023-04-08T02:45:27;32.60;;;17.40;;
76729;SDS011;65653;53.106;18.046;2023-04-08T02:47:57;35.80;;;17.80;;
76729;SDS011;65653;53.106;18.046;2023-04-08T02:50:25;33.90;;;16.30;;
76729;SDS011;65653;53.106;18.046;2023-04-08T02:52:51;23.20;;;12.50;;
76729;SDS011;65653;53.106;18.046;2023-04-08T02:55:18;24.80;;;12.60;;
76729;SDS011;65653;53.106;18.046;2023-04-08T02:57:45;21.10;;;11.90;;
76729;SDS011;65653;53.106;18.046;2023-04-08T03:00:13;22.00;;;11.10;;
76729;SDS011;65653;53.106;18.046;2023-04-08T03:02:40;23.20;;;12.60;;
76729;SDS011;65653;53.106;18.046;2023-04-08T03:05:06;27.00;;;13.40;;
76729;SDS011;65653;53.106;18.046;2023-04-08T03:07:34;31.40;;;16.30;;
76729;SDS011;65653;53.106;18.046;2023-04-08T03:10:01;32.60;;;17.00;;
76729;SDS011;65653;53.106;18.046;2023-04-08T03:12:28;42.70;;;21.50;;
76729;SDS011;65653;53.106;18.046;2023-04-08T03:14:54;39.80;;;19.20;;
76729;SDS011;65653;53.106;18.046;2023-04-08T03:17:21;40.20;;;19.80;;
76729;SDS011;65653;53.106;18.046;2023-04-08T03:19:47;39.40;;;20.00;;
76729;SDS011;65653;53.106;18.046;2023-04-08T03:22:14;38.70;;;19.60;;
76729;SDS011;65653;53.106;18.046;2023-04-08T03:24:40;39.50;;;19.60;;
76729;SDS011;65653;53.106;18.046;2023-04-08T03:27:07;39.90;;;18.60;;
76729;SDS011;65653;53.106;18.046;2023-04-08T03:29:33;33.00;;;17.50;;
76729;SDS011;65653;53.106;18.046;2023-04-08T03:32:00;34.90;;;17.80;;
76729;SDS011;65653;53.106;18.046;2023-04-08T03:34:26;35.60;;;18.40;;
76729;SDS011;65653;53.106;18.046;2023-04-08T03:36:53;36.40;;;17.90;;
76729;SDS011;65653;53.106;18.046;2023-04-08T03:39:19;33.90;;;17.70;;
76729;SDS011;65653;53.106;18.046;2023-04-08T03:41:46;33.50;;;16.00;;
76729;SDS011;65653;53.106;18.046;2023-04-08T03:44:12;34.00;;;17.10;;
76729;SDS011;65653;53.106;18.046;2023-04-08T03:46:39;37.70;;;16.90;;
76729;SDS011;65653;53.106;18.046;2023-04-08T03:49:05;37.70;;;17.60;;
76729;SDS011;65653;53.106;18.046;2023-04-08T03:51:32;35.60;;;17.30;;
76729;SDS011;65653;53.106;18.046;2023-04-08T03:53:59;38.50;;;18.40;;
76729;SDS011;65653;53.106;18.046;2023-04-08T03:56:25;35.30;;;17.10;;
76729;SDS011;65653;53.106;18.046;2023-04-08T03:58:52;35.90;;;17.70;;
76729;SDS011;65653;53.106;18.046;2023-04-08T04:01:18;35.50;;;17.30;;
76729;SDS011;65653;53.106;18.046;2023-04-08T04:03:44;34.40;;;16.20;;
76729;SDS011;65653;53.106;18.046;2023-04-08T04:06:11;36.80;;;17.00;;
76729;SDS011;65653;53.106;18.046;2023-04-08T04:08:38;32.90;;;16.80;;
76729;SDS011;65653;53.106;18.046;2023-04-08T04:11:04;32.70;;;16.60;;
76729;SDS011;65653;53.106;18.046;2023-04-08T04:13:31;36.30;;;17.10;;
76729;SDS011;65653;53.106;18.046;2023-04-08T04:15:57;35.20;;;16.70;;
76729;SDS011;65653;53.106;18.046;2023-04-08T04:18:24;40.50;;;19.50;;
76729;SDS011;65653;53.106;18.046;2023-04-08T04:20:50;32.10;;;17.00;;
76729;SDS011;65653;53.106;18.046;2023-04-08T04:23:16;34.90;;;15.90;;
76729;SDS011;65653;53.106;18.046;2023-04-08T04:25:43;36.80;;;17.50;;
76729;SDS011;65653;53.106;18.046;2023-04-08T04:28:09;32.60;;;16.70;;
76729;SDS011;65653;53.106;18.046;2023-04-08T04:30:36;32.50;;;16.80;;
76729;SDS011;65653;53.106;18.046;2023-04-08T04:33:04;31.90;;;16.10;;
76729;SDS011;65653;53.106;18.046;2023-04-08T04:35:31;33.30;;;15.60;;
76729;SDS011;65653;53.106;18.046;2023-04-08T04:37:58;33.90;;;15.80;;
76729;SDS011;65653;53.106;18.046;2023-04-08T04:40:24;35.20;;;16.50;;
76729;SDS011;65653;53.106;18.046;2023-04-08T04:42:51;32.70;;;15.90;;
76729;SDS011;65653;53.106;18.046;2023-04-08T04:45:17;31.70;;;15.10;;
76729;SDS011;65653;53.106;18.046;2023-04-08T04:47:44;40.10;;;18.30;;
76729;SDS011;65653;53.106;18.046;2023-04-08T04:50:10;36.40;;;17.60;;
76729;SDS011;65653;53.106;18.046;2023-04-08T04:52:37;36.50;;;16.50;;
76729;SDS011;65653;53.106;18.046;2023-04-08T04:55:03;30.90;;;15.20;;
76729;SDS011;65653;53.106;18.046;2023-04-08T04:57:30;28.10;;;14.50;;
76729;SDS011;65653;53.106;18.046;2023-04-08T04:59:56;20.10;;;9.70;;
76729;SDS011;65653;53.106;18.046;2023-04-08T05:02:23;16.60;;;9.90;;
76729;SDS011;65653;53.106;18.046;2023-04-08T05:04:49;10.10;;;5.90;;
76729;SDS011;65653;53.106;18.046;2023-04-08T05:07:18;10.30;;;6.10;;
76729;SDS011;65653;53.106;18.046;2023-04-08T05:09:45;13.50;;;7.20;;
76729;SDS011;65653;53.106;18.046;2023-04-08T05:12:11;13.50;;;7.40;;
76729;SDS011;65653;53.106;18.046;2023-04-08T05:14:38;9.80;;;5.90;;
76729;SDS011;65653;53.106;18.046;2023-04-08T05:17:04;10.10;;;5.60;;
76729;SDS011;65653;53.106;18.046;2023-04-08T05:19:31;12.40;;;6.40;;
76729;SDS011;65653;53.106;18.046;2023-04-08T05:21:58;12.60;;;7.00;;
76729;SDS011;65653;53.106;18.046;2023-04-08T05:24:24;16.20;;;9.80;;
76729;SDS011;65653;53.106;18.046;2023-04-08T05:26:51;19.00;;;10.10;;
76729;SDS011;65653;53.106;18.046;2023-04-08T05:29:18;12.20;;;7.20;;
76729;SDS011;65653;53.106;18.046;2023-04-08T05:31:46;13.60;;;7.30;;
76729;SDS011;65653;53.106;18.046;2023-04-08T05:34:13;14.20;;;7.20;;
76729;SDS011;65653;53.106;18.046;2023-04-08T05:36:41;10.40;;;6.10;;
76729;SDS011;65653;53.106;18.046;2023-04-08T05:39:08;10.20;;;6.00;;
76729;SDS011;65653;53.106;18.046;2023-04-08T05:41:35;10.90;;;6.20;;
76729;SDS011;65653;53.106;18.046;2023-04-08T05:44:01;9.40;;;5.10;;
76729;SDS011;65653;53.106;18.046;2023-04-08T05:46:28;7.90;;;4.80;;
76729;SDS011;65653;53.106;18.046;2023-04-08T05:48:54;11.90;;;6.30;;
76729;SDS011;65653;53.106;18.046;2023-04-08T05:51:21;12.00;;;7.20;;
76729;SDS011;65653;53.106;18.046;2023-04-08T05:53:47;10.80;;;6.90;;
76729;SDS011;65653;53.106;18.046;2023-04-08T05:56:14;12.30;;;7.20;;
76729;SDS011;65653;53.106;18.046;2023-04-08T05:58:40;10.10;;;6.70;;
76729;SDS011;65653;53.106;18.046;2023-04-08T06:01:06;7.70;;;4.70;;
76729;SDS011;65653;53.106;18.046;2023-04-08T06:03:33;11.60;;;6.60;;
76729;SDS011;65653;53.106;18.046;2023-04-08T06:05:59;9.10;;;5.50;;
76729;SDS011;65653;53.106;18.046;2023-04-08T06:08:26;11.40;;;6.20;;
76729;SDS011;65653;53.106;18.046;2023-04-08T06:10:52;8.90;;;5.90;;
76729;SDS011;65653;53.106;18.046;2023-04-08T06:13:19;10.80;;;5.50;;
76729;SDS011;65653;53.106;18.046;2023-04-08T06:15:47;8.00;;;5.40;;
76729;SDS011;65653;53.106;18.046;2023-04-08T06:18:16;8.50;;;5.30;;
76729;SDS011;65653;53.106;18.046;2023-04-08T06:20:43;9.50;;;5.60;;
76729;SDS011;65653;53.106;18.046;2023-04-08T06:23:09;10.00;;;6.60;;
76729;SDS011;65653;53.106;18.046;2023-04-08T06:25:36;9.10;;;5.40;;
76729;SDS011;65653;53.106;18.046;2023-04-08T06:28:03;9.90;;;5.00;;
76729;SDS011;65653;53.106;18.046;2023-04-08T06:30:29;11.30;;;6.50;;
76729;SDS011;65653;53.106;18.046;2023-04-08T06:32:56;8.40;;;5.30;;
76729;SDS011;65653;53.106;18.046;2023-04-08T06:35:22;8.30;;;4.40;;
76729;SDS011;65653;53.106;18.046;2023-04-08T06:37:49;10.30;;;6.60;;
76729;SDS011;65653;53.106;18.046;2023-04-08T06:40:18;9.40;;;5.60;;
76729;SDS011;65653;53.106;18.046;2023-04-08T06:42:44;9.10;;;6.10;;
76729;SDS011;65653;53.106;18.046;2023-04-08T06:45:11;11.60;;;6.40;;
76729;SDS011;65653;53.106;18.046;2023-04-08T06:47:38;9.10;;;5.80;;
76729;SDS011;65653;53.106;18.046;2023-04-08T06:50:05;10.00;;;5.80;;
76729;SDS011;65653;53.106;18.046;2023-04-08T06:52:32;9.80;;;5.50;;
76729;SDS011;65653;53.106;18.046;2023-04-08T06:54:58;9.40;;;6.00;;
76729;SDS011;65653;53.106;18.046;2023-04-08T06:57:25;8.60;;;5.80;;
76729;SDS011;65653;53.106;18.046;2023-04-08T06:59:51;11.40;;;5.80;;
76729;SDS011;65653;53.106;18.046;2023-04-08T07:02:18;9.40;;;5.80;;
76729;SDS011;65653;53.106;18.046;2023-04-08T07:04:45;11.30;;;6.80;;
76729;SDS011;65653;53.106;18.046;2023-04-08T07:07:12;10.90;;;6.90;;
76729;SDS011;65653;53.106;18.046;2023-04-08T07:09:38;10.00;;;5.50;;
76729;SDS011;65653;53.106;18.046;2023-04-08T07:12:06;9.30;;;6.30;;
76729;SDS011;65653;53.106;18.046;2023-04-08T07:14:33;10.90;;;7.50;;
76729;SDS011;65653;53.106;18.046;2023-04-08T07:16:59;11.10;;;6.90;;
76729;SDS011;65653;53.106;18.046;2023-04-08T07:19:26;10.10;;;6.40;;
76729;SDS011;65653;53.106;18.046;2023-04-08T07:21:52;12.00;;;7.10;;
76729;SDS011;65653;53.106;18.046;2023-04-08T07:24:19;10.10;;;7.20;;
76729;SDS011;65653;53.106;18.046;2023-04-08T07:26:45;9.40;;;6.50;;
76729;SDS011;65653;53.106;18.046;2023-04-08T07:29:12;9.50;;;6.40;;
76729;SDS011;65653;53.106;18.046;2023-04-08T07:31:39;9.00;;;6.50;;
76729;SDS011;65653;53.106;18.046;2023-04-08T07:34:05;9.40;;;5.80;;
76729;SDS011;65653;53.106;18.046;2023-04-08T07:36:32;9.50;;;6.60;;
76729;SDS011;65653;53.106;18.046;2023-04-08T07:38:58;9.50;;;6.30;;
76729;SDS011;65653;53.106;18.046;2023-04-08T07:41:25;8.90;;;6.30;;
76729;SDS011;65653;53.106;18.046;2023-04-08T07:43:51;9.60;;;6.30;;
76729;SDS011;65653;53.106;18.046;2023-04-08T07:46:17;9.30;;;6.50;;
76729;SDS011;65653;53.106;18.046;2023-04-08T07:48:45;11.00;;;6.90;;
76729;SDS011;65653;53.106;18.046;2023-04-08T07:51:11;7.50;;;5.00;;
76729;SDS011;65653;53.106;18.046;2023-04-08T07:53:38;9.10;;;5.70;;
76729;SDS011;65653;53.106;18.046;2023-04-08T07:56:12;11.60;;;6.70;;
76729;SDS011;65653;53.106;18.046;2023-04-08T07:58:40;9.30;;;6.80;;
76729;SDS011;65653;53.106;18.046;2023-04-08T08:01:20;9.70;;;6.20;;
76729;SDS011;65653;53.106;18.046;2023-04-08T08:03:49;11.10;;;7.30;;
76729;SDS011;65653;53.106;18.046;2023-04-08T08:06:16;11.30;;;7.30;;
76729;SDS011;65653;53.106;18.046;2023-04-08T08:08:43;11.30;;;8.00;;
76729;SDS011;65653;53.106;18.046;2023-04-08T08:11:09;10.70;;;7.10;;
76729;SDS011;65653;53.106;18.046;2023-04-08T08:13:36;9.60;;;6.50;;
76729;SDS011;65653;53.106;18.046;2023-04-08T08:16:02;11.20;;;7.80;;
76729;SDS011;65653;53.106;18.046;2023-04-08T08:18:29;9.60;;;6.80;;
76729;SDS011;65653;53.106;18.046;2023-04-08T08:20:55;10.80;;;7.50;;
76729;SDS011;65653;53.106;18.046;2023-04-08T08:23:22;12.10;;;8.10;;
76729;SDS011;65653;53.106;18.046;2023-04-08T08:25:48;10.30;;;7.70;;
76729;SDS011;65653;53.106;18.046;2023-04-08T08:28:24;9.80;;;7.40;;
76729;SDS011;65653;53.106;18.046;2023-04-08T08:30:51;9.60;;;6.90;;
76729;SDS011;65653;53.106;18.046;2023-04-08T08:33:17;12.90;;;9.00;;
76729;SDS011;65653;53.106;18.046;2023-04-08T08:35:44;10.90;;;7.50;;
76729;SDS011;65653;53.106;18.046;2023-04-08T08:38:10;10.00;;;7.20;;
76729;SDS011;65653;53.106;18.046;2023-04-08T08:40:38;7.50;;;5.00;;
76729;SDS011;65653;53.106;18.046;2023-04-08T08:43:05;9.50;;;6.70;;
76729;SDS011;65653;53.106;18.046;2023-04-08T08:45:32;9.30;;;6.40;;
76729;SDS011;65653;53.106;18.046;2023-04-08T08:47:58;9.80;;;6.90;;
76729;SDS011;65653;53.106;18.046;2023-04-08T08:50:24;13.00;;;9.00;;
76729;SDS011;65653;53.106;18.046;2023-04-08T08:52:51;10.70;;;7.50;;
76729;SDS011;65653;53.106;18.046;2023-04-08T08:55:20;9.70;;;7.00;;
76729;SDS011;65653;53.106;18.046;2023-04-08T08:57:50;9.30;;;6.30;;
76729;SDS011;65653;53.106;18.046;2023-04-08T09:00:17;10.30;;;7.20;;
76729;SDS011;65653;53.106;18.046;2023-04-08T09:02:44;9.30;;;6.30;;
76729;SDS011;65653;53.106;18.046;2023-04-08T09:05:11;10.00;;;6.90;;
76729;SDS011;65653;53.106;18.046;2023-04-08T09:07:37;10.90;;;7.40;;
76729;SDS011;65653;53.106;18.046;2023-04-08T09:10:07;10.20;;;8.10;;
76729;SDS011;65653;53.106;18.046;2023-04-08T09:12:52;18.10;;;11.30;;
76729;SDS011;65653;53.106;18.046;2023-04-08T09:15:20;12.10;;;8.50;;
76729;SDS011;65653;53.106;18.046;2023-04-08T09:17:46;11.90;;;8.40;;
76729;SDS011;65653;53.106;18.046;2023-04-08T09:20:13;12.10;;;8.50;;
76729;SDS011;65653;53.106;18.046;2023-04-08T09:25:24;13.40;;;9.80;;
76729;SDS011;65653;53.106;18.046;2023-04-08T09:27:51;9.50;;;6.80;;
76729;SDS011;65653;53.106;18.046;2023-04-08T09:30:25;9.30;;;7.30;;
76729;SDS011;65653;53.106;18.046;2023-04-08T09:32:54;8.80;;;7.30;;
76729;SDS011;65653;53.106;18.046;2023-04-08T09:35:23;10.50;;;7.40;;
76729;SDS011;65653;53.106;18.046;2023-04-08T09:37:51;9.00;;;7.60;;
76729;SDS011;65653;53.106;18.046;2023-04-08T09:40:17;11.50;;;8.80;;
76729;SDS011;65653;53.106;18.046;2023-04-08T09:42:45;10.80;;;8.40;;
76729;SDS011;65653;53.106;18.046;2023-04-08T09:45:17;8.40;;;6.80;;
76729;SDS011;65653;53.106;18.046;2023-04-08T09:47:55;8.80;;;7.10;;
76729;SDS011;65653;53.106;18.046;2023-04-08T09:50:25;10.90;;;9.30;;
76729;SDS011;65653;53.106;18.046;2023-04-08T09:53:07;11.20;;;9.60;;
76729;SDS011;65653;53.106;18.046;2023-04-08T09:55:40;14.60;;;12.90;;
76729;SDS011;65653;53.106;18.046;2023-04-08T09:58:10;9.80;;;8.90;;
76729;SDS011;65653;53.106;18.046;2023-04-08T10:00:45;10.00;;;9.00;;
76729;SDS011;65653;53.106;18.046;2023-04-08T10:05:56;10.40;;;9.40;;
76729;SDS011;65653;53.106;18.046;2023-04-08T10:08:26;9.50;;;8.60;;
76729;SDS011;65653;53.106;18.046;2023-04-08T10:10:53;10.50;;;9.50;;
76729;SDS011;65653;53.106;18.046;2023-04-08T10:13:20;10.50;;;9.50;;
76729;SDS011;65653;53.106;18.046;2023-04-08T10:15:47;9.90;;;8.90;;
76729;SDS011;65653;53.106;18.046;2023-04-08T10:20:44;9.80;;;8.90;;
76729;SDS011;65653;53.106;18.046;2023-04-08T10:23:15;9.90;;;9.00;;
76729;SDS011;65653;53.106;18.046;2023-04-08T10:25:47;7.90;;;7.30;;
76729;SDS011;65653;53.106;18.046;2023-04-08T10:30:49;9.40;;;8.60;;
76729;SDS011;65653;53.106;18.046;2023-04-08T10:38:38;9.60;;;8.70;;
76729;SDS011;65653;53.106;18.046;2023-04-08T10:41:05;9.60;;;8.60;;
76729;SDS011;65653;53.106;18.046;2023-04-08T10:43:34;9.40;;;8.50;;
76729;SDS011;65653;53.106;18.046;2023-04-08T10:46:02;8.70;;;7.90;;
76729;SDS011;65653;53.106;18.046;2023-04-08T10:48:30;7.90;;;7.20;;
76729;SDS011;65653;53.106;18.046;2023-04-08T10:51:03;9.60;;;8.70;;
76729;SDS011;65653;53.106;18.046;2023-04-08T10:56:09;8.70;;;7.90;;
76729;SDS011;65653;53.106;18.046;2023-04-08T10:58:51;9.40;;;8.50;;
76729;SDS011;65653;53.106;18.046;2023-04-08T11:01:21;9.30;;;8.50;;
76729;SDS011;65653;53.106;18.046;2023-04-08T11:03:48;8.40;;;7.60;;
76729;SDS011;65653;53.106;18.046;2023-04-08T11:06:15;9.30;;;8.40;;
76729;SDS011;65653;53.106;18.046;2023-04-08T11:08:42;7.10;;;6.50;;
76729;SDS011;65653;53.106;18.046;2023-04-08T11:11:12;9.30;;;8.40;;
76729;SDS011;65653;53.106;18.046;2023-04-08T11:13:42;8.70;;;7.90;;
76729;SDS011;65653;53.106;18.046;2023-04-08T11:16:10;9.30;;;8.50;;
76729;SDS011;65653;53.106;18.046;2023-04-08T11:18:38;8.90;;;8.10;;
76729;SDS011;65653;53.106;18.046;2023-04-08T11:21:08;8.40;;;7.70;;
76729;SDS011;65653;53.106;18.046;2023-04-08T11:23:36;8.80;;;8.00;;
76729;SDS011;65653;53.106;18.046;2023-04-08T11:26:03;8.60;;;7.90;;
76729;SDS011;65653;53.106;18.046;2023-04-08T11:28:31;9.00;;;8.30;;
76729;SDS011;65653;53.106;18.046;2023-04-08T11:30:57;7.90;;;7.30;;
76729;SDS011;65653;53.106;18.046;2023-04-08T11:33:24;8.90;;;8.10;;
76729;SDS011;65653;53.106;18.046;2023-04-08T11:35:52;8.50;;;7.70;;
76729;SDS011;65653;53.106;18.046;2023-04-08T11:38:22;8.70;;;8.00;;
76729;SDS011;65653;53.106;18.046;2023-04-08T11:40:56;8.60;;;7.80;;
76729;SDS011;65653;53.106;18.046;2023-04-08T11:43:24;8.70;;;8.00;;
76729;SDS011;65653;53.106;18.046;2023-04-08T11:45:51;8.30;;;7.60;;
76729;SDS011;65653;53.106;18.046;2023-04-08T11:48:18;7.60;;;6.90;;
76729;SDS011;65653;53.106;18.046;2023-04-08T11:50:45;7.90;;;7.30;;
76729;SDS011;65653;53.106;18.046;2023-04-08T11:53:23;8.10;;;7.50;;
76729;SDS011;65653;53.106;18.046;2023-04-08T11:55:50;8.00;;;7.30;;
76729;SDS011;65653;53.106;18.046;2023-04-08T11:58:17;8.30;;;7.60;;
76729;SDS011;65653;53.106;18.046;2023-04-08T12:00:44;8.10;;;7.30;;
76729;SDS011;65653;53.106;18.046;2023-04-08T12:03:11;7.40;;;6.80;;
76729;SDS011;65653;53.106;18.046;2023-04-08T12:05:39;7.80;;;7.20;;
76729;SDS011;65653;53.106;18.046;2023-04-08T12:08:06;7.80;;;7.00;;
76729;SDS011;65653;53.106;18.046;2023-04-08T12:10:33;7.80;;;7.00;;
76729;SDS011;65653;53.106;18.046;2023-04-08T12:12:59;7.80;;;7.20;;
76729;SDS011;65653;53.106;18.046;2023-04-08T12:15:26;6.80;;;6.20;;
76729;SDS011;65653;53.106;18.046;2023-04-08T12:17:52;8.70;;;6.70;;
76729;SDS011;65653;53.106;18.046;2023-04-08T12:20:19;7.20;;;6.60;;
76729;SDS011;65653;53.106;18.046;2023-04-08T12:22:46;8.10;;;7.40;;
76729;SDS011;65653;53.106;18.046;2023-04-08T12:25:12;8.40;;;7.70;;
76729;SDS011;65653;53.106;18.046;2023-04-08T12:27:39;6.80;;;6.30;;
76729;SDS011;65653;53.106;18.046;2023-04-08T12:30:06;6.70;;;6.20;;
76729;SDS011;65653;53.106;18.046;2023-04-08T12:32:33;6.10;;;5.60;;
76729;SDS011;65653;53.106;18.046;2023-04-08T12:34:59;7.90;;;7.20;;
76729;SDS011;65653;53.106;18.046;2023-04-08T12:37:26;6.90;;;6.30;;
76729;SDS011;65653;53.106;18.046;2023-04-08T12:39:53;6.60;;;6.10;;
76729;SDS011;65653;53.106;18.046;2023-04-08T12:42:19;6.10;;;5.60;;
76729;SDS011;65653;53.106;18.046;2023-04-08T12:44:46;6.60;;;6.00;;
76729;SDS011;65653;53.106;18.046;2023-04-08T12:47:12;6.70;;;6.20;;
76729;SDS011;65653;53.106;18.046;2023-04-08T12:49:39;6.80;;;6.20;;
76729;SDS011;65653;53.106;18.046;2023-04-08T12:52:05;6.10;;;5.60;;
76729;SDS011;65653;53.106;18.046;2023-04-08T12:54:32;7.10;;;6.50;;
76729;SDS011;65653;53.106;18.046;2023-04-08T12:56:59;6.80;;;6.20;;
76729;SDS011;65653;53.106;18.046;2023-04-08T12:59:26;6.50;;;6.00;;
76729;SDS011;65653;53.106;18.046;2023-04-08T13:01:53;5.90;;;5.40;;
76729;SDS011;65653;53.106;18.046;2023-04-08T13:04:19;6.00;;;5.40;;
76729;SDS011;65653;53.106;18.046;2023-04-08T13:06:46;30.60;;;26.50;;
76729;SDS011;65653;53.106;18.046;2023-04-08T13:09:12;7.70;;;7.00;;
76729;SDS011;65653;53.106;18.046;2023-04-08T13:11:40;5.60;;;5.20;;
76729;SDS011;65653;53.106;18.046;2023-04-08T13:14:07;5.70;;;5.10;;
76729;SDS011;65653;53.106;18.046;2023-04-08T13:16:33;5.30;;;4.80;;
76729;SDS011;65653;53.106;18.046;2023-04-08T13:19:00;5.70;;;5.20;;
76729;SDS011;65653;53.106;18.046;2023-04-08T13:21:27;5.10;;;4.70;;
76729;SDS011;65653;53.106;18.046;2023-04-08T13:23:54;5.80;;;5.40;;
76729;SDS011;65653;53.106;18.046;2023-04-08T13:26:20;6.70;;;5.60;;
76729;SDS011;65653;53.106;18.046;2023-04-08T13:28:47;5.40;;;4.90;;
76729;SDS011;65653;53.106;18.046;2023-04-08T13:31:13;5.70;;;5.20;;
76729;SDS011;65653;53.106;18.046;2023-04-08T13:33:40;5.90;;;5.40;;
76729;SDS011;65653;53.106;18.046;2023-04-08T13:36:07;5.80;;;5.30;;
76729;SDS011;65653;53.106;18.046;2023-04-08T13:38:34;7.00;;;6.40;;
76729;SDS011;65653;53.106;18.046;2023-04-08T13:41:01;7.20;;;6.60;;
76729;SDS011;65653;53.106;18.046;2023-04-08T13:43:28;7.10;;;6.40;;
76729;SDS011;65653;53.106;18.046;2023-04-08T13:45:54;6.70;;;6.10;;
76729;SDS011;65653;53.106;18.046;2023-04-08T13:48:22;7.10;;;6.30;;
76729;SDS011;65653;53.106;18.046;2023-04-08T13:50:48;6.80;;;6.20;;
76729;SDS011;65653;53.106;18.046;2023-04-08T13:53:15;6.60;;;6.10;;
76729;SDS011;65653;53.106;18.046;2023-04-08T13:55:42;6.40;;;5.90;;
76729;SDS011;65653;53.106;18.046;2023-04-08T13:58:09;6.00;;;5.50;;
76729;SDS011;65653;53.106;18.046;2023-04-08T14:00:35;6.20;;;5.70;;
76729;SDS011;65653;53.106;18.046;2023-04-08T14:03:02;5.30;;;4.90;;
76729;SDS011;65653;53.106;18.046;2023-04-08T14:05:29;4.70;;;4.40;;
76729;SDS011;65653;53.106;18.046;2023-04-08T14:07:57;5.70;;;5.30;;
76729;SDS011;65653;53.106;18.046;2023-04-08T14:10:23;5.40;;;4.90;;
76729;SDS011;65653;53.106;18.046;2023-04-08T14:12:50;5.20;;;4.80;;
76729;SDS011;65653;53.106;18.046;2023-04-08T14:15:16;32.40;;;29.30;;
76729;SDS011;65653;53.106;18.046;2023-04-08T14:17:44;6.00;;;5.50;;
76729;SDS011;65653;53.106;18.046;2023-04-08T14:20:10;6.00;;;5.50;;
76729;SDS011;65653;53.106;18.046;2023-04-08T14:22:37;5.90;;;5.40;;
76729;SDS011;65653;53.106;18.046;2023-04-08T14:25:04;6.30;;;5.70;;
76729;SDS011;65653;53.106;18.046;2023-04-08T14:27:31;6.80;;;6.10;;
76729;SDS011;65653;53.106;18.046;2023-04-08T14:29:58;6.90;;;6.10;;
76729;SDS011;65653;53.106;18.046;2023-04-08T14:32:25;6.80;;;6.10;;
76729;SDS011;65653;53.106;18.046;2023-04-08T14:34:51;5.80;;;5.30;;
76729;SDS011;65653;53.106;18.046;2023-04-08T14:37:18;5.70;;;5.10;;
76729;SDS011;65653;53.106;18.046;2023-04-08T14:39:44;7.00;;;5.90;;
76729;SDS011;65653;53.106;18.046;2023-04-08T14:42:11;5.60;;;5.10;;
76729;SDS011;65653;53.106;18.046;2023-04-08T14:44:38;6.30;;;5.70;;
76729;SDS011;65653;53.106;18.046;2023-04-08T14:47:04;5.70;;;5.20;;
76729;SDS011;65653;53.106;18.046;2023-04-08T14:49:31;5.90;;;5.40;;
76729;SDS011;65653;53.106;18.046;2023-04-08T14:51:58;5.70;;;5.20;;
76729;SDS011;65653;53.106;18.046;2023-04-08T14:54:24;5.90;;;5.40;;
76729;SDS011;65653;53.106;18.046;2023-04-08T14:56:51;5.60;;;5.10;;
76729;SDS011;65653;53.106;18.046;2023-04-08T14:59:19;6.50;;;5.90;;
76729;SDS011;65653;53.106;18.046;2023-04-08T15:01:45;6.40;;;5.80;;
76729;SDS011;65653;53.106;18.046;2023-04-08T15:04:12;5.40;;;4.80;;